Time;durP1;ratioP1;P1;durP2;ratioP2;P2;SDS_P1;SDS_P2;PMS_P1;PMS_P2;Temp;Humidity;BMP_temperature;BMP_pressure;BME280_temperature;BME280_humidity;BME280_pressure;Samples;Min_cycle;Max_cycle;Signal;HPM_P1;HPM_P2
2021/06/30 00:00:25;;;;;;;14.07;7.63;;;;;;;15.85;100.00;100567.53;5070888;28;20102;-85
2021/06/30 00:02:50;;;;;;;11.30;7.90;;;;;;;15.93;100.00;100570.06;5073832;28;20044;-85
2021/06/30 00:05:16;;;;;;;12.55;8.50;;;;;;;16.05;100.00;100572.16;5074424;28;20515;-85
2021/06/30 00:07:42;;;;;;;11.13;8.00;;;;;;;16.04;100.00;100570.50;5045479;28;20070;-86
2021/06/30 00:10:09;;;;;;;12.82;8.13;;;;;;;15.98;100.00;100567.56;5086257;28;20420;-87
2021/06/30 00:12:35;;;;;;;11.60;8.77;;;;;;;16.01;100.00;100577.16;5058088;28;20041;-85
2021/06/30 00:15:04;;;;;;;13.27;8.75;;;;;;;16.00;100.00;100568.22;5071991;28;20047;-87
2021/06/30 00:17:30;;;;;;;13.43;7.97;;;;;;;15.97;100.00;100574.03;5078598;28;20552;-86
2021/06/30 00:19:55;;;;;;;14.70;9.05;;;;;;;15.98;100.00;100573.00;5059373;28;20048;-85
2021/06/30 00:22:21;;;;;;;13.95;8.38;;;;;;;16.06;100.00;100576.56;5059638;28;20451;-86
2021/06/30 00:24:46;;;;;;;12.27;8.32;;;;;;;16.01;100.00;100569.88;5066267;28;20044;-86
2021/06/30 00:27:12;;;;;;;12.30;8.10;;;;;;;15.88;100.00;100556.34;5076814;28;20058;-86
2021/06/30 00:29:37;;;;;;;12.60;8.65;;;;;;;15.85;100.00;100550.47;5079581;28;20052;-86
2021/06/30 00:32:04;;;;;;;15.70;7.82;;;;;;;15.78;100.00;100551.28;5077178;28;20058;-86
2021/06/30 00:34:29;;;;;;;13.95;8.70;;;;;;;15.77;100.00;100559.63;5081586;28;20094;-87
2021/06/30 00:36:55;;;;;;;11.77;8.80;;;;;;;15.92;100.00;100556.75;5067355;28;20049;-87
2021/06/30 00:39:22;;;;;;;13.80;8.90;;;;;;;15.82;100.00;100559.81;5066880;28;20040;-86
2021/06/30 00:41:49;;;;;;;11.38;8.25;;;;;;;15.91;100.00;100566.75;5079453;28;20036;-87
2021/06/30 00:44:15;;;;;;;13.95;9.00;;;;;;;15.83;100.00;100568.81;5075534;28;20032;-87
2021/06/30 00:46:40;;;;;;;13.75;8.50;;;;;;;15.71;100.00;100571.28;5077445;28;20040;-86
2021/06/30 00:49:07;;;;;;;12.80;8.93;;;;;;;15.69;100.00;100567.94;5060507;28;20076;-85
2021/06/30 00:51:33;;;;;;;11.88;8.43;;;;;;;15.66;100.00;100568.31;5097420;28;20312;-85
2021/06/30 00:53:59;;;;;;;16.80;9.60;;;;;;;15.75;100.00;100556.28;5078957;28;20043;-85
2021/06/30 00:56:27;;;;;;;14.52;9.15;;;;;;;15.74;100.00;100555.47;5098227;28;20389;-84
2021/06/30 00:58:55;;;;;;;13.40;9.10;;;;;;;15.74;100.00;100551.94;5086650;28;20040;-84
2021/06/30 01:01:22;;;;;;;13.05;9.65;;;;;;;15.76;100.00;100547.13;5090354;28;20036;-84
2021/06/30 01:03:49;;;;;;;16.83;8.75;;;;;;;15.78;100.00;100540.47;5100063;28;20040;-84
2021/06/30 01:06:15;;;;;;;14.35;9.07;;;;;;;15.79;100.00;100536.75;5050857;28;20041;-84
2021/06/30 01:08:41;;;;;;;15.10;9.00;;;;;;;15.82;100.00;100532.78;5084407;28;20051;-84
2021/06/30 01:11:07;;;;;;;14.77;9.20;;;;;;;15.72;100.00;100535.06;5099027;28;20395;-85
2021/06/30 01:13:33;;;;;;;14.88;9.60;;;;;;;15.81;100.00;100531.13;5101241;28;20046;-85
2021/06/30 01:15:58;;;;;;;13.73;8.48;;;;;;;15.75;100.00;100524.66;5078091;28;20123;-85
2021/06/30 01:18:27;;;;;;;16.10;9.43;;;;;;;15.75;100.00;100535.47;5095363;28;20032;-85
2021/06/30 01:20:54;;;;;;;;;;;;;;;15.69;100.00;100536.28;5039464;28;20131;-85
2021/06/30 01:23:20;;;;;;;18.20;9.48;;;;;;;15.64;100.00;100533.31;5077054;28;19961;-85
2021/06/30 01:25:48;;;;;;;15.48;9.48;;;;;;;15.67;100.00;100521.28;5064202;28;20261;-85
2021/06/30 01:28:15;;;;;;;12.95;8.13;;;;;;;15.55;100.00;100529.16;5048982;28;20362;-84
2021/06/30 01:30:42;;;;;;;12.48;8.02;;;;;;;15.51;100.00;100539.53;5063257;28;20467;-84
2021/06/30 01:33:08;;;;;;;16.23;8.13;;;;;;;15.53;100.00;100531.22;5052866;28;20036;-85
2021/06/30 01:35:34;;;;;;;15.38;8.60;;;;;;;15.48;100.00;100523.72;5082684;28;20039;-84
2021/06/30 01:38:00;;;;;;;12.23;8.00;;;;;;;15.57;100.00;100530.63;5076805;28;20035;-84
2021/06/30 01:40:26;;;;;;;13.30;8.98;;;;;;;15.66;100.00;100533.97;5050480;28;20090;-84
2021/06/30 01:42:55;;;;;;;12.60;8.02;;;;;;;15.56;100.00;100530.81;5044388;28;20052;-84
2021/06/30 01:45:22;;;;;;;13.77;8.85;;;;;;;15.58;100.00;100516.03;5042402;28;20059;-84
2021/06/30 01:47:49;;;;;;;13.88;7.72;;;;;;;15.54;100.00;100517.50;5080874;28;20040;-85
2021/06/30 01:50:15;;;;;;;14.05;8.75;;;;;;;15.50;100.00;100500.00;5061641;28;20033;-84
2021/06/30 01:52:42;;;;;;;14.48;8.40;;;;;;;15.47;100.00;100495.00;5074634;28;20040;-84
2021/06/30 01:55:09;;;;;;;16.55;8.40;;;;;;;15.44;100.00;100494.56;5072857;28;20039;-84
2021/06/30 01:57:52;;;;;;;14.18;8.75;;;;;;;15.42;100.00;100502.91;5066547;28;20072;-84
2021/06/30 02:00:19;;;;;;;15.07;8.77;;;;;;;15.45;100.00;100499.78;5079556;28;20050;-84
2021/06/30 02:02:47;;;;;;;17.05;9.55;;;;;;;15.47;100.00;100505.00;5080055;28;20496;-84
2021/06/30 02:05:16;;;;;;;17.17;10.68;;;;;;;15.45;100.00;100499.78;5080440;28;20088;-83
2021/06/30 02:08:00;;;;;;;14.73;9.27;;;;;;;15.39;100.00;100497.88;5083339;28;20036;-84
2021/06/30 02:10:28;;;;;;;14.98;9.90;;;;;;;15.32;100.00;100499.75;5081449;28;20036;-85
2021/06/30 02:12:55;;;;;;;21.00;11.35;;;;;;;15.43;100.00;100496.47;5056446;28;20469;-84
2021/06/30 02:15:27;;;;;;;16.63;10.13;;;;;;;15.40;100.00;100488.75;5074446;28;20407;-83
2021/06/30 02:17:54;;;;;;;15.82;10.30;;;;;;;15.44;100.00;100491.88;5058883;28;20512;-83
2021/06/30 02:20:21;;;;;;;16.83;10.65;;;;;;;15.46;100.00;100487.94;5084732;28;20476;-84
2021/06/30 02:22:47;;;;;;;18.48;10.20;;;;;;;15.48;100.00;100485.88;5084029;28;20047;-84
2021/06/30 02:25:32;;;;;;;18.00;10.82;;;;;;;15.46;100.00;100496.03;5076719;28;20114;-84
2021/06/30 02:27:58;;;;;;;14.35;9.40;;;;;;;15.43;100.00;100493.75;5060268;28;20089;-84
2021/06/30 02:30:28;;;;;;;13.52;9.35;;;;;;;15.41;100.00;100489.56;5071081;28;20492;-84
2021/06/30 02:32:56;;;;;;;11.93;8.40;;;;;;;15.34;100.00;100489.56;5069233;28;20036;-84
2021/06/30 02:35:24;;;;;;;13.50;8.65;;;;;;;15.31;100.00;100490.81;5077439;28;20040;-84
2021/06/30 02:37:51;;;;;;;15.40;9.10;;;;;;;15.40;100.00;100501.44;5085349;28;20043;-84
2021/06/30 02:40:18;;;;;;;11.13;8.32;;;;;;;15.27;100.00;100500.34;5066647;28;20043;-83
2021/06/30 02:42:45;;;;;;;13.90;9.45;;;;;;;15.33;100.00;100493.28;5079242;28;20036;-84
2021/06/30 02:45:12;;;;;;;15.35;9.90;;;;;;;15.43;100.00;100490.22;5076410;28;20044;-83
2021/06/30 02:47:40;;;;;;;14.48;9.45;;;;;;;15.39;100.00;100487.06;5090927;28;20051;-84
2021/06/30 02:50:07;;;;;;;14.15;10.02;;;;;;;15.41;100.00;100485.00;5071679;28;20051;-84
2021/06/30 02:52:33;;;;;;;16.13;9.85;;;;;;;15.42;100.00;100483.13;5073804;28;20520;-84
2021/06/30 02:55:00;;;;;;;12.65;8.90;;;;;;;15.39;100.00;100476.25;5056959;28;20048;-83
2021/06/30 02:57:25;;;;;;;13.02;7.82;;;;;;;15.41;100.00;100479.59;5094014;28;20032;-84
2021/06/30 02:59:51;;;;;;;10.65;8.23;;;;;;;15.41;100.00;100476.88;5079007;28;20112;-84
2021/06/30 03:02:16;;;;;;;11.23;7.78;;;;;;;15.39;100.00;100484.38;5068463;28;20499;-84
2021/06/30 03:04:42;;;;;;;11.43;7.97;;;;;;;15.31;100.00;100489.97;5048434;28;20041;-84
2021/06/30 03:07:09;;;;;;;13.48;8.38;;;;;;;15.33;100.00;100493.28;5093822;28;20052;-85
2021/06/30 03:09:34;;;;;;;12.55;7.85;;;;;;;15.35;100.00;100485.81;5068648;28;20040;-84
2021/06/30 03:12:01;;;;;;;11.02;7.72;;;;;;;15.41;100.00;100495.81;5057062;28;20054;-83
2021/06/30 03:14:27;;;;;;;12.43;7.85;;;;;;;15.37;100.00;100502.69;5041203;28;20097;-85
2021/06/30 03:16:52;;;;;;;9.95;7.85;;;;;;;15.39;100.00;100511.41;5049813;28;20459;-84
2021/06/30 03:19:17;;;;;;;11.68;8.82;;;;;;;15.41;100.00;100505.81;5064088;28;20039;-84
2021/06/30 03:21:43;;;;;;;12.68;8.95;;;;;;;15.39;100.00;100514.09;5055713;28;20121;-84
2021/06/30 03:24:09;;;;;;;10.32;7.80;;;;;;;15.32;100.00;100514.09;5076522;28;20091;-83
2021/06/30 03:26:34;;;;;;;12.23;8.02;;;;;;;15.35;100.00;100518.25;5070446;28;20052;-84
2021/06/30 03:29:02;;;;;;;11.52;8.32;;;;;;;15.37;100.00;100521.59;5077021;28;20082;-84
2021/06/30 03:31:27;;;;;;;12.52;8.25;;;;;;;15.35;100.00;100523.66;5076883;28;20487;-84
2021/06/30 03:33:53;;;;;;;11.75;8.43;;;;;;;15.34;100.00;100516.59;5066275;28;20078;-84
2021/06/30 03:36:21;;;;;;;11.90;8.80;;;;;;;15.42;100.00;100516.44;5056144;28;20059;-84
2021/06/30 03:38:46;;;;;;;10.48;7.88;;;;;;;15.34;100.00;100514.72;5077087;28;20059;-84
2021/06/30 03:41:12;;;;;;;11.52;8.55;;;;;;;15.37;100.00;100513.50;5075481;28;20044;-84
2021/06/30 03:43:37;;;;;;;10.13;7.85;;;;;;;15.33;100.00;100513.06;5065942;28;20534;-84
2021/06/30 03:46:03;;;;;;;10.13;7.70;;;;;;;15.32;100.00;100514.09;5075499;28;20109;-84
2021/06/30 03:48:28;;;;;;;8.55;7.65;;;;;;;15.38;100.00;100511.63;5063441;28;20068;-85
2021/06/30 03:50:54;;;;;;;8.57;7.28;;;;;;;15.26;100.00;100525.72;5075706;28;20066;-85
2021/06/30 03:53:19;;;;;;;10.85;7.38;;;;;;;15.36;100.00;100511.81;5049537;28;20048;-85
2021/06/30 03:55:44;;;;;;;10.52;7.18;;;;;;;15.41;100.00;100514.75;5069716;28;20040;-84
2021/06/30 03:58:10;;;;;;;10.60;7.57;;;;;;;15.35;100.00;100515.56;5074656;28;20047;-85
2021/06/30 04:00:36;;;;;;;9.23;7.03;;;;;;;15.31;100.00;100514.31;5076127;28;20439;-84
2021/06/30 04:03:01;;;;;;;10.70;7.82;;;;;;;15.40;100.00;100518.50;5068032;28;20044;-84
2021/06/30 04:05:27;;;;;;;8.43;6.70;;;;;;;15.26;100.00;100514.06;5061765;28;20047;-84
2021/06/30 04:07:52;;;;;;;8.80;7.55;;;;;;;15.30;100.00;100512.63;5074475;28;20043;-85
2021/06/30 04:10:18;;;;;;;10.70;7.80;;;;;;;15.31;100.00;100523.25;5061906;28;20069;-84
2021/06/30 04:12:44;;;;;;;10.70;8.73;;;;;;;15.31;100.00;100519.72;5065949;28;20032;-85
2021/06/30 04:15:10;;;;;;;9.88;7.95;;;;;;;15.35;100.00;100529.06;5072267;28;20036;-83
2021/06/30 04:17:43;;;;;;;11.50;8.85;;;;;;;15.38;100.00;100528.66;5092817;28;20488;-83
2021/06/30 04:20:10;;;;;;;10.80;9.00;;;;;;;15.37;100.00;100527.00;5094487;28;20561;-84
2021/06/30 04:22:36;;;;;;;10.80;8.65;;;;;;;15.27;100.00;100531.94;5081271;28;20066;-84
2021/06/30 04:25:06;;;;;;;16.17;9.45;;;;;;;15.31;100.00;100538.63;5100854;28;20048;-83
2021/06/30 04:27:34;;;;;;;11.68;9.07;;;;;;;15.28;100.00;100534.47;5096966;28;20044;-86
2021/06/30 04:30:01;;;;;;;12.98;9.38;;;;;;;15.23;100.00;100534.22;5087851;28;20122;-83
2021/06/30 04:32:27;;;;;;;12.13;8.70;;;;;;;15.22;100.00;100537.13;5087480;28;20757;-83
2021/06/30 04:34:52;;;;;;;9.75;8.57;;;;;;;15.24;100.00;100532.34;5107608;28;20043;-83
2021/06/30 04:37:20;;;;;;;11.43;9.52;;;;;;;15.28;100.00;100529.06;5100855;28;20099;-82
2021/06/30 04:39:45;;;;;;;11.20;8.52;;;;;;;15.25;100.00;100534.03;5069721;28;20048;-83
2021/06/30 04:42:10;;;;;;;12.60;8.98;;;;;;;15.17;100.00;100528.78;5100631;28;20516;-82
2021/06/30 04:44:37;;;;;;;12.23;9.52;;;;;;;15.20;100.00;100531.09;5098332;28;20052;-83
2021/06/30 04:47:03;;;;;;;11.70;9.43;;;;;;;15.14;100.00;100527.31;5072239;28;20468;-83
2021/06/30 04:49:28;;;;;;;13.20;9.13;;;;;;;15.09;100.00;100530.63;5102455;28;20038;-82
2021/06/30 04:51:53;;;;;;;12.02;9.68;;;;;;;15.10;100.00;100529.59;5074178;28;20657;-83
2021/06/30 04:54:21;;;;;;;13.52;9.77;;;;;;;15.16;100.00;100527.09;5085757;28;20043;-81
2021/06/30 04:56:47;;;;;;;11.23;9.38;;;;;;;15.14;100.00;100532.72;5080877;28;20520;-83
2021/06/30 04:59:13;;;;;;;13.20;10.32;;;;;;;15.20;100.00;100533.81;5067833;28;20051;-82
2021/06/30 05:01:38;;;;;;;11.80;9.30;;;;;;;15.14;100.00;100532.72;5089205;28;20044;-83
2021/06/30 05:04:03;;;;;;;12.85;9.30;;;;;;;15.10;100.00;100532.31;5086361;28;20185;-83
2021/06/30 05:06:30;;;;;;;12.38;9.65;;;;;;;15.08;100.00;100528.13;5067771;28;20135;-82
2021/06/30 05:08:55;;;;;;;11.52;9.43;;;;;;;15.06;100.00;100547.22;5068352;28;20043;-83
2021/06/30 05:11:21;;;;;;;11.35;9.15;;;;;;;15.07;100.00;100548.06;5107938;28;20046;-82
2021/06/30 05:13:46;;;;;;;13.25;11.10;;;;;;;15.20;100.00;100544.63;5104539;28;20066;-83
2021/06/30 05:16:11;;;;;;;11.63;9.43;;;;;;;15.29;100.00;100546.94;5085573;28;20043;-82
2021/06/30 05:18:37;;;;;;;9.40;8.23;;;;;;;15.29;100.00;100548.81;5068686;28;20036;-82
2021/06/30 05:21:03;;;;;;;10.38;9.13;;;;;;;15.34;100.00;100549.03;5097104;28;20034;-82
2021/06/30 05:23:28;;;;;;;11.43;9.27;;;;;;;15.43;100.00;100552.41;5081836;28;20551;-82
2021/06/30 05:25:54;;;;;;;11.65;9.23;;;;;;;15.28;100.00;100550.69;5083829;28;20067;-82
2021/06/30 05:28:19;;;;;;;11.45;9.00;;;;;;;15.22;100.00;100545.22;5086067;28;20388;-83
2021/06/30 05:30:44;;;;;;;11.43;8.63;;;;;;;15.26;100.00;100551.91;5100100;28;20036;-83
2021/06/30 05:33:10;;;;;;;11.90;9.18;;;;;;;15.31;100.00;100546.75;5065341;28;20093;-82
2021/06/30 05:35:36;;;;;;;13.48;10.00;;;;;;;15.23;100.00;100546.91;5065409;28;20043;-83
2021/06/30 05:38:01;;;;;;;10.65;9.00;;;;;;;15.23;100.00;100544.22;5084427;28;20051;-82
2021/06/30 05:40:28;;;;;;;13.20;10.02;;;;;;;15.22;100.00;100553.34;5084634;28;20035;-82
2021/06/30 05:42:59;;;;;;;12.57;9.88;;;;;;;15.31;100.00;100554.84;5086239;28;20040;-83
2021/06/30 05:45:25;;;;;;;11.43;8.40;;;;;;;15.18;100.00;100550.19;5081461;28;20043;-82
2021/06/30 05:47:51;;;;;;;11.55;8.85;;;;;;;15.22;100.00;100561.44;5092479;28;20040;-83
2021/06/30 05:50:19;;;;;;;13.65;9.00;;;;;;;15.25;100.00;100556.50;5100282;28;20043;-83
2021/06/30 05:52:47;;;;;;;9.33;7.43;;;;;;;15.30;100.00;100553.16;5079005;28;20387;-82
2021/06/30 05:55:13;;;;;;;9.48;7.43;;;;;;;15.21;100.00;100562.47;5101780;28;20127;-82
2021/06/30 05:57:38;;;;;;;11.95;8.48;;;;;;;15.29;100.00;100556.91;5099691;28;20057;-83
2021/06/30 06:00:11;;;;;;;9.15;7.28;;;;;;;15.35;100.00;100558.81;5096809;28;20043;-83
2021/06/30 06:02:36;;;;;;;9.43;8.07;;;;;;;15.41;100.00;100554.47;5080813;28;20384;-83
2021/06/30 06:05:04;;;;;;;9.25;7.68;;;;;;;15.40;100.00;100553.66;5083025;28;20043;-83
2021/06/30 06:07:29;;;;;;;9.40;7.45;;;;;;;15.35;100.00;100551.53;5048347;28;20542;-82
2021/06/30 06:09:54;;;;;;;7.82;6.40;;;;;;;15.48;100.00;100548.06;5070206;28;20132;-83
2021/06/30 06:12:20;;;;;;;8.55;6.82;;;;;;;15.46;100.00;100547.41;5063320;28;20123;-83
2021/06/30 06:14:45;;;;;;;7.85;6.18;;;;;;;15.47;100.00;100550.94;5081869;28;20039;-83
2021/06/30 06:17:18;;;;;;;8.63;6.28;;;;;;;15.47;100.00;100543.66;5099221;28;20392;-83
2021/06/30 06:19:45;;;;;;;7.93;6.38;;;;;;;15.46;100.00;100535.78;5100052;28;20040;-83
2021/06/30 06:22:12;;;;;;;8.15;6.45;;;;;;;15.44;100.00;100538.66;5103940;28;20115;-82
2021/06/30 06:24:38;;;;;;;8.25;6.72;;;;;;;15.53;100.00;100540.16;5099181;28;20547;-83
2021/06/30 06:27:04;;;;;;;9.70;7.70;;;;;;;15.66;100.00;100535.84;5069573;28;20052;-83
2021/06/30 06:29:30;;;;;;;13.32;9.13;;;;;;;15.62;100.00;100532.69;5083303;28;20043;-84
2021/06/30 06:31:57;;;;;;;16.27;10.32;;;;;;;15.62;100.00;100529.16;5070723;28;20466;-83
2021/06/30 06:34:22;;;;;;;20.38;12.38;;;;;;;15.68;100.00;100537.34;5095086;27;20040;-84
2021/06/30 06:36:54;;;;;;;21.25;13.73;;;;;;;15.68;100.00;100533.78;5082798;28;20183;-83
2021/06/30 06:39:21;;;;;;;23.13;14.98;;;;;;;15.78;100.00;100539.66;5106497;28;20031;-84
2021/06/30 06:41:47;;;;;;;25.98;16.55;;;;;;;15.77;100.00;100540.69;5066351;28;20032;-83
2021/06/30 06:44:13;;;;;;;26.67;16.48;;;;;;;15.70;100.00;100550.66;5086352;28;20036;-83
2021/06/30 06:46:39;;;;;;;24.55;16.02;;;;;;;15.80;100.00;100545.69;5078652;28;20047;-83
2021/06/30 06:49:06;;;;;;;23.70;16.40;;;;;;;15.81;100.00;100544.66;5095850;28;20040;-83
2021/06/30 06:51:33;;;;;;;21.98;14.90;;;;;;;15.90;100.00;100537.16;5099634;28;20511;-82
2021/06/30 06:53:58;;;;;;;19.85;12.93;;;;;;;15.90;100.00;100545.28;5080156;28;22010;-82
2021/06/30 06:56:27;;;;;;;16.98;12.10;;;;;;;15.85;100.00;100548.59;5095142;28;20043;-83
2021/06/30 06:58:53;;;;;;;12.38;9.27;;;;;;;15.85;100.00;100543.19;5101464;28;20040;-83
2021/06/30 07:01:19;;;;;;;10.77;8.40;;;;;;;15.90;100.00;100553.41;5098067;28;20420;-83
2021/06/30 07:03:44;;;;;;;8.55;7.25;;;;;;;15.83;100.00;100558.81;5072814;28;20146;-83
2021/06/30 07:06:11;;;;;;;9.38;7.53;;;;;;;15.84;100.00;100551.53;5102826;28;20080;-83
2021/06/30 07:08:37;;;;;;;10.80;8.30;;;;;;;15.85;100.00;100556.72;5092426;28;20679;-83
2021/06/30 07:11:05;;;;;;;10.75;8.35;;;;;;;15.92;100.00;100563.00;5079490;28;20063;-83
2021/06/30 07:13:30;;;;;;;12.35;8.75;;;;;;;16.03;100.00;100556.16;5082528;28;20519;-83
2021/06/30 07:15:56;;;;;;;11.80;8.25;;;;;;;15.97;100.00;100559.69;5079300;28;20101;-83
2021/06/30 07:18:23;;;;;;;10.93;8.23;;;;;;;16.03;100.00;100558.84;5062754;28;20039;-83
2021/06/30 07:20:48;;;;;;;6.97;5.50;;;;;;;16.09;99.44;100559.91;5081092;28;20043;-83
2021/06/30 07:23:14;;;;;;;8.02;6.13;;;;;;;16.24;99.04;100565.94;5097536;28;20042;-83
2021/06/30 07:25:41;;;;;;;6.65;4.95;;;;;;;16.29;97.26;100568.06;5081320;28;20047;-83
2021/06/30 07:28:07;;;;;;;5.50;3.83;;;;;;;16.25;97.50;100564.91;5064070;28;20122;-84
2021/06/30 07:30:33;;;;;;;6.28;4.60;;;;;;;16.29;98.11;100570.75;5077512;28;20120;-83
2021/06/30 07:33:00;;;;;;;5.93;4.60;;;;;;;16.29;97.81;100557.22;5084769;28;20651;-83
2021/06/30 07:35:25;;;;;;;5.20;4.07;;;;;;;16.12;97.90;100556.78;5083890;28;20496;-83
2021/06/30 07:37:51;;;;;;;5.75;3.72;;;;;;;16.18;98.20;100556.78;5050484;28;20058;-83
2021/06/30 07:40:17;;;;;;;4.07;3.58;;;;;;;16.21;97.55;100560.97;5069065;28;20043;-83
2021/06/30 07:42:43;;;;;;;4.95;3.42;;;;;;;16.31;98.51;100566.78;5088245;28;20051;-83
2021/06/30 07:45:08;;;;;;;4.75;3.80;;;;;;;16.31;98.38;100561.34;5098362;28;20043;-83
2021/06/30 07:47:34;;;;;;;4.68;3.78;;;;;;;16.36;98.96;100558.88;5083306;28;20047;-84
2021/06/30 07:50:01;;;;;;;5.05;3.72;;;;;;;16.54;98.03;100568.25;5081026;28;20119;-83
2021/06/30 07:52:27;;;;;;;4.53;3.78;;;;;;;16.53;97.36;100566.59;5059280;28;20520;-83
2021/06/30 07:54:52;;;;;;;4.28;3.67;;;;;;;16.58;96.82;100564.09;5068883;28;20050;-83
2021/06/30 07:57:17;;;;;;;4.97;3.78;;;;;;;16.51;96.89;100563.25;5096170;28;20118;-84
2021/06/30 07:59:43;;;;;;;4.97;3.92;;;;;;;16.58;97.73;100569.50;5098598;28;20044;-84
2021/06/30 08:02:08;;;;;;;6.07;4.65;;;;;;;16.60;97.85;100564.69;5099311;28;20512;-83
2021/06/30 08:04:34;;;;;;;6.60;4.78;;;;;;;16.59;97.90;100571.16;5079157;28;20050;-83
2021/06/30 08:06:59;;;;;;;6.53;4.75;;;;;;;16.67;99.12;100574.50;5066417;28;20040;-84
2021/06/30 08:09:25;;;;;;;6.45;5.05;;;;;;;16.71;99.52;100569.47;5068371;28;20499;-84
2021/06/30 08:11:50;;;;;;;6.10;5.15;;;;;;;16.72;99.35;100571.16;5071557;28;20038;-83
2021/06/30 08:14:15;;;;;;;6.40;5.15;;;;;;;16.67;99.17;100581.78;5100414;28;20494;-84
2021/06/30 08:16:41;;;;;;;7.20;4.88;;;;;;;16.67;98.66;100584.50;5105001;28;20039;-83
2021/06/30 08:19:08;;;;;;;5.03;4.20;;;;;;;16.69;98.73;100588.69;5096902;28;20071;-84
2021/06/30 08:21:34;;;;;;;6.90;4.75;;;;;;;16.67;99.22;100588.03;5067664;28;20043;-83
2021/06/30 08:24:00;;;;;;;5.47;4.50;;;;;;;16.46;99.27;100578.25;5070311;28;20654;-84
2021/06/30 08:26:25;;;;;;;6.03;4.28;;;;;;;16.58;99.70;100583.06;5091066;28;20039;-83
2021/06/30 08:28:52;;;;;;;5.00;3.90;;;;;;;16.58;99.55;100580.34;5099863;28;20061;-85
2021/06/30 08:31:17;;;;;;;5.82;4.53;;;;;;;16.64;99.77;100583.03;5084614;28;20055;-83
2021/06/30 08:33:42;;;;;;;5.28;4.03;;;;;;;16.69;99.08;100574.31;5094456;28;20032;-84
2021/06/30 08:36:08;;;;;;;6.28;4.28;;;;;;;16.66;97.33;100572.00;5090207;28;20543;-84
2021/06/30 08:38:33;;;;;;;5.47;4.30;;;;;;;16.70;99.54;100570.53;5057535;28;20139;-84
2021/06/30 08:41:00;;;;;;;5.80;4.35;;;;;;;16.84;98.58;100565.97;5083235;28;20502;-85
2021/06/30 08:43:26;;;;;;;6.53;4.80;;;;;;;16.74;99.12;100574.47;5080343;28;20142;-85
2021/06/30 08:45:52;;;;;;;6.55;5.20;;;;;;;16.79;98.07;100577.44;5081843;28;20131;-84
2021/06/30 08:48:20;;;;;;;6.72;4.90;;;;;;;16.87;99.35;100579.94;5085244;28;20777;-84
2021/06/30 08:50:47;;;;;;;6.75;5.35;;;;;;;16.91;98.57;100583.88;5106956;28;20377;-84
2021/06/30 08:53:14;;;;;;;6.10;4.82;;;;;;;16.88;98.54;100581.59;5097434;28;20396;-85
2021/06/30 08:55:46;;;;;;;5.60;4.50;;;;;;;16.66;97.56;100591.81;5087267;28;20372;-84
2021/06/30 08:58:13;;;;;;;6.32;5.53;;;;;;;16.67;99.62;100598.06;5102485;28;20048;-84
2021/06/30 09:00:40;;;;;;;7.75;5.95;;;;;;;16.95;99.94;100595.16;5100657;28;20065;-85
2021/06/30 09:03:08;;;;;;;7.03;5.88;;;;;;;16.92;98.37;100606.41;5083211;28;20044;-84
2021/06/30 09:07:59;;;;;;;7.70;5.95;;;;;;;16.96;99.76;100606.81;5104655;28;20058;-85
2021/06/30 09:10:38;;;;;;;7.38;5.70;;;;;;;16.85;97.44;100609.09;5083236;28;20038;-84
2021/06/30 09:13:07;;;;;;;8.25;6.25;;;;;;;16.77;97.27;100603.91;5080762;28;20047;-85
2021/06/30 09:15:34;;;;;;;6.13;5.22;;;;;;;16.91;98.46;100610.97;5102725;28;20047;-84
2021/06/30 09:18:24;;;;;;;5.97;5.03;;;;;;;16.95;97.41;100602.44;5102269;28;20099;-84
2021/06/30 09:20:50;;;;;;;7.18;5.30;;;;;;;16.89;97.44;100606.84;5087697;28;20404;-84
2021/06/30 09:23:15;;;;;;;7.10;5.00;;;;;;;16.89;97.80;100598.69;5070854;28;20311;-85
2021/06/30 09:25:43;;;;;;;7.05;5.30;;;;;;;16.92;97.49;100603.69;5084887;28;20093;-85
2021/06/30 09:28:12;;;;;;;6.93;5.20;;;;;;;16.84;97.19;100596.63;5063570;28;20044;-84
2021/06/30 09:30:54;;;;;;;7.53;5.78;;;;;;;16.91;97.03;100605.56;5101875;28;20040;-84
2021/06/30 09:33:19;;;;;;;6.97;5.72;;;;;;;16.91;98.10;100597.41;5080778;28;20071;-85
2021/06/30 09:35:45;;;;;;;7.32;5.88;;;;;;;16.85;98.12;100606.41;5065046;28;20048;-83
2021/06/30 09:38:30;;;;;;;7.13;5.38;;;;;;;16.77;98.33;100603.06;5105759;28;20043;-84
2021/06/30 09:40:55;;;;;;;6.97;5.75;;;;;;;16.66;98.99;100607.22;5098947;28;20536;-84
2021/06/30 09:43:23;;;;;;;7.15;5.90;;;;;;;16.64;99.68;100603.88;5083441;28;20131;-84
2021/06/30 09:45:48;;;;;;;7.38;5.88;;;;;;;16.62;99.37;100597.84;5079915;28;20035;-84
2021/06/30 09:48:32;;;;;;;7.20;5.90;;;;;;;16.64;99.83;100598.47;5103074;28;20039;-84
2021/06/30 09:50:59;;;;;;;8.30;5.78;;;;;;;16.68;100.00;100602.41;5053920;28;20398;-84
2021/06/30 09:53:41;;;;;;;7.30;5.40;;;;;;;16.69;99.20;100595.97;5078733;28;20042;-84
2021/06/30 09:56:15;;;;;;;6.78;5.43;;;;;;;16.63;99.87;100597.66;5033435;28;20059;-85
2021/06/30 09:58:41;;;;;;;7.20;5.57;;;;;;;16.69;99.93;100599.50;5076856;28;20036;-84
2021/06/30 10:01:15;;;;;;;7.00;5.65;;;;;;;16.69;99.31;100604.94;5074672;28;20050;-83
2021/06/30 10:03:40;;;;;;;6.57;4.97;;;;;;;16.64;99.18;100593.06;5081890;28;20041;-83
2021/06/30 10:06:30;;;;;;;6.00;5.07;;;;;;;16.62;100.00;100606.78;5083505;28;20059;-84
2021/06/30 10:08:57;;;;;;;7.13;5.30;;;;;;;16.55;99.91;100608.69;5083205;28;20077;-84
2021/06/30 10:11:27;;;;;;;8.20;5.85;;;;;;;16.70;98.45;100608.47;5078448;28;20028;-84
2021/06/30 10:13:53;;;;;;;6.85;5.20;;;;;;;16.66;98.78;100604.53;5081445;28;20040;-84
2021/06/30 10:16:22;;;;;;;7.05;5.70;;;;;;;16.77;98.43;100612.03;5077570;28;20036;-84
2021/06/30 10:18:50;;;;;;;6.93;5.07;;;;;;;16.95;97.39;100613.28;5074366;28;20131;-84
2021/06/30 10:21:21;;;;;;;6.80;4.60;;;;;;;16.89;96.70;100617.66;5075817;28;20050;-84
2021/06/30 10:23:47;;;;;;;5.85;4.80;;;;;;;16.81;97.01;100616.00;5090019;28;20044;-84
2021/06/30 10:26:15;;;;;;;6.80;5.22;;;;;;;16.86;98.87;100626.19;5081344;28;20062;-84
2021/06/30 10:28:42;;;;;;;7.22;6.10;;;;;;;16.80;100.00;100617.06;5081322;28;20392;-84
2021/06/30 10:31:08;;;;;;;7.57;5.95;;;;;;;16.77;99.88;100624.75;5080180;28;20047;-84
2021/06/30 10:33:38;;;;;;;6.75;5.47;;;;;;;16.70;99.55;100622.00;5082394;28;20024;-85
2021/06/30 10:36:07;;;;;;;7.32;5.97;;;;;;;16.84;99.46;100626.41;5084877;28;20056;-85
2021/06/30 10:38:55;;;;;;;7.75;5.60;;;;;;;16.95;98.50;100621.41;5080080;28;20453;-84
2021/06/30 10:41:54;;;;;;;7.05;5.20;;;;;;;16.97;97.23;100622.84;5067444;28;20039;-84
2021/06/30 10:44:24;;;;;;;6.57;4.88;;;;;;;17.04;96.34;100620.16;5039680;28;20035;-85
2021/06/30 10:46:52;;;;;;;6.65;5.28;;;;;;;17.09;96.16;100623.03;5069471;28;20036;-84
2021/06/30 10:49:20;;;;;;;7.18;5.82;;;;;;;17.15;95.43;100627.66;5065293;28;20488;-85
2021/06/30 10:51:55;;;;;;;7.00;5.43;;;;;;;17.12;95.37;100623.47;5082755;28;20129;-84
2021/06/30 10:54:36;;;;;;;7.40;5.40;;;;;;;17.10;95.77;100625.56;5061180;28;20708;-85
2021/06/30 10:57:21;;;;;;;7.68;5.55;;;;;;;17.08;94.90;100630.34;5077836;28;20392;-84
2021/06/30 11:00:03;;;;;;;6.93;5.28;;;;;;;17.17;95.20;100625.53;5056488;28;20058;-85
2021/06/30 11:02:34;;;;;;;9.07;6.28;;;;;;;17.23;94.87;100624.69;5085592;28;20067;-85
2021/06/30 11:05:14;;;;;;;7.57;6.03;;;;;;;17.24;94.28;100633.69;5077177;28;20035;-85
2021/06/30 11:07:44;;;;;;;6.93;5.70;;;;;;;17.18;93.16;100629.94;5096381;28;20956;-84
2021/06/30 11:10:15;;;;;;;7.22;5.55;;;;;;;17.16;94.78;100645.56;5078399;28;20047;-85
2021/06/30 11:12:58;;;;;;;7.07;5.53;;;;;;;17.22;94.76;100641.19;5097044;28;20052;-85
2021/06/30 11:15:36;;;;;;;11.27;6.47;;;;;;;17.12;94.67;100638.91;5090125;28;20123;-85
2021/06/30 11:18:11;;;;;;;8.50;6.00;;;;;;;17.14;94.77;100642.22;5080237;28;20043;-84